sensor_id;sensor_type;location;lat;lon;timestamp;pressure;altitude;pressure_sealevel;temperature;humidity
67840;BME280;54636;51.684;5.142;2023-03-01T00:00:11;103165.69;;;-1.74;84.51
67840;BME280;54636;51.684;5.142;2023-03-01T00:02:36;103169.47;;;-1.75;84.28
67840;BME280;54636;51.684;5.142;2023-03-01T00:05:02;103175.38;;;-1.82;84.85
67840;BME280;54636;51.684;5.142;2023-03-01T00:07:28;103173.47;;;-1.81;85.87
67840;BME280;54636;51.684;5.142;2023-03-01T00:09:53;103172.38;;;-1.80;85.67
67840;BME280;54636;51.684;5.142;2023-03-01T00:12:19;103171.59;;;-1.81;85.71
67840;BME280;54636;51.684;5.142;2023-03-01T00:14:45;103185.16;;;-1.86;85.94
67840;BME280;54636;51.684;5.142;2023-03-01T00:17:10;103173.59;;;-1.90;86.01
67840;BME280;54636;51.684;5.142;2023-03-01T00:19:36;103168.44;;;-1.98;86.53
67840;BME280;54636;51.684;5.142;2023-03-01T00:22:01;103165.66;;;-2.02;86.73
67840;BME280;54636;51.684;5.142;2023-03-01T00:24:27;103163.47;;;-2.12;86.75
67840;BME280;54636;51.684;5.142;2023-03-01T00:26:53;103167.91;;;-2.16;86.91
67840;BME280;54636;51.684;5.142;2023-03-01T00:29:21;103172.00;;;-2.19;87.28
67840;BME280;54636;51.684;5.142;2023-03-01T00:31:46;103172.00;;;-2.19;87.86
67840;BME280;54636;51.684;5.142;2023-03-01T00:34:12;103176.13;;;-2.21;87.81
67840;BME280;54636;51.684;5.142;2023-03-01T00:36:37;103169.47;;;-2.27;88.27
67840;BME280;54636;51.684;5.142;2023-03-01T00:39:05;103167.38;;;-2.34;88.22
67840;BME280;54636;51.684;5.142;2023-03-01T00:41:32;103182.00;;;-2.40;87.88
67840;BME280;54636;51.684;5.142;2023-03-01T00:43:59;103172.91;;;-2.51;88.82
67840;BME280;54636;51.684;5.142;2023-03-01T00:46:26;103182.09;;;-2.49;88.68
67840;BME280;54636;51.684;5.142;2023-03-01T00:48:52;103184.44;;;-2.59;89.20
67840;BME280;54636;51.684;5.142;2023-03-01T00:51:21;103188.00;;;-2.68;88.47
67840;BME280;54636;51.684;5.142;2023-03-01T00:53:50;103181.22;;;-2.77;89.08
67840;BME280;54636;51.684;5.142;2023-03-01T00:56:16;103182.09;;;-2.85;89.56
67840;BME280;54636;51.684;5.142;2023-03-01T00:58:41;103173.75;;;-2.96;89.91
67840;BME280;54636;51.684;5.142;2023-03-01T01:01:12;103169.75;;;-3.02;90.30
67840;BME280;54636;51.684;5.142;2023-03-01T01:03:54;103159.97;;;-3.10;90.44
67840;BME280;54636;51.684;5.142;2023-03-01T01:06:25;103165.50;;;-3.15;90.58
67840;BME280;54636;51.684;5.142;2023-03-01T01:08:52;103160.28;;;-3.24;91.10
67840;BME280;54636;51.684;5.142;2023-03-01T01:11:18;103163.16;;;-3.29;91.06
67840;BME280;54636;51.684;5.142;2023-03-01T01:13:44;103158.81;;;-3.34;91.30
67840;BME280;54636;51.684;5.142;2023-03-01T01:16:11;103147.94;;;-3.41;91.36
67840;BME280;54636;51.684;5.142;2023-03-01T01:18:37;103153.47;;;-3.46;91.40
67840;BME280;54636;51.684;5.142;2023-03-01T01:21:08;103150.69;;;-3.49;92.13
67840;BME280;54636;51.684;5.142;2023-03-01T01:23:34;103134.50;;;-3.56;92.30
67840;BME280;54636;51.684;5.142;2023-03-01T01:26:08;103133.72;;;-3.57;92.61
67840;BME280;54636;51.684;5.142;2023-03-01T01:28:34;103135.13;;;-3.59;93.14
67840;BME280;54636;51.684;5.142;2023-03-01T01:30:59;103135.78;;;-3.62;93.28
67840;BME280;54636;51.684;5.142;2023-03-01T01:33:25;103133.78;;;-3.66;93.24
67840;BME280;54636;51.684;5.142;2023-03-01T01:35:51;103129.91;;;-3.68;94.01
67840;BME280;54636;51.684;5.142;2023-03-01T01:38:16;103132.44;;;-3.72;93.91
67840;BME280;54636;51.684;5.142;2023-03-01T01:40:46;103127.00;;;-3.75;94.35
67840;BME280;54636;51.684;5.142;2023-03-01T01:43:27;103123.44;;;-3.79;95.07
67840;BME280;54636;51.684;5.142;2023-03-01T01:45:59;103124.53;;;-3.80;94.76
67840;BME280;54636;51.684;5.142;2023-03-01T01:49:16;103114.44;;;-3.87;94.85
67840;BME280;54636;51.684;5.142;2023-03-01T01:51:23;103113.31;;;-3.86;95.80
67840;BME280;54636;51.684;5.142;2023-03-01T01:53:53;103102.84;;;-3.82;96.45
67840;BME280;54636;51.684;5.142;2023-03-01T01:56:20;103111.25;;;-3.80;96.07
67840;BME280;54636;51.684;5.142;2023-03-01T01:58:47;103105.09;;;-3.72;96.78
67840;BME280;54636;51.684;5.142;2023-03-01T02:01:13;103111.44;;;-3.65;96.89
67840;BME280;54636;51.684;5.142;2023-03-01T02:03:39;103108.63;;;-3.47;98.40
67840;BME280;54636;51.684;5.142;2023-03-01T02:06:35;103096.28;;;-3.31;97.41
67840;BME280;54636;51.684;5.142;2023-03-01T02:09:06;103096.72;;;-3.29;97.44
67840;BME280;54636;51.684;5.142;2023-03-01T02:11:33;103093.06;;;-3.24;97.09
67840;BME280;54636;51.684;5.142;2023-03-01T02:13:59;103089.84;;;-3.18;97.63
67840;BME280;54636;51.684;5.142;2023-03-01T02:16:25;103095.16;;;-3.18;97.31
67840;BME280;54636;51.684;5.142;2023-03-01T02:18:52;103079.34;;;-3.14;96.79
67840;BME280;54636;51.684;5.142;2023-03-01T02:21:38;103078.47;;;-3.06;97.33
67840;BME280;54636;51.684;5.142;2023-03-01T02:26:48;103083.69;;;-2.97;97.58
67840;BME280;54636;51.684;5.142;2023-03-01T02:29:15;103078.59;;;-2.90;97.60
67840;BME280;54636;51.684;5.142;2023-03-01T02:31:41;103089.22;;;-2.90;96.34
67840;BME280;54636;51.684;5.142;2023-03-01T02:34:09;103088.22;;;-2.98;96.67
67840;BME280;54636;51.684;5.142;2023-03-01T02:36:47;103087.44;;;-2.99;96.08
67840;BME280;54636;51.684;5.142;2023-03-01T02:39:17;103091.44;;;-3.05;97.25
67840;BME280;54636;51.684;5.142;2023-03-01T02:41:52;103090.00;;;-3.02;96.95
67840;BME280;54636;51.684;5.142;2023-03-01T02:44:18;103089.22;;;-3.03;97.35
67840;BME280;54636;51.684;5.142;2023-03-01T02:46:50;103090.09;;;-2.99;97.36
67840;BME280;54636;51.684;5.142;2023-03-01T02:49:28;103099.31;;;-2.96;97.02
67840;BME280;54636;51.684;5.142;2023-03-01T02:57:15;103088.34;;;-2.94;97.02
67840;BME280;54636;51.684;5.142;2023-03-01T02:59:42;103091.00;;;-2.94;96.58
67840;BME280;54636;51.684;5.142;2023-03-01T03:02:22;103090.09;;;-2.99;97.40
67840;BME280;54636;51.684;5.142;2023-03-01T03:05:02;103093.09;;;-3.00;96.50
67840;BME280;54636;51.684;5.142;2023-03-01T03:07:28;103090.66;;;-3.05;96.91
67840;BME280;54636;51.684;5.142;2023-03-01T03:09:53;103076.47;;;-3.09;97.88
67840;BME280;54636;51.684;5.142;2023-03-01T03:12:18;103074.03;;;-3.14;97.89
67840;BME280;54636;51.684;5.142;2023-03-01T03:14:44;103075.91;;;-3.15;97.23
67840;BME280;54636;51.684;5.142;2023-03-01T03:17:09;103071.56;;;-3.19;97.35
67840;BME280;54636;51.684;5.142;2023-03-01T03:19:34;103075.22;;;-3.24;97.14
67840;BME280;54636;51.684;5.142;2023-03-01T03:22:00;103085.75;;;-3.27;96.68
67840;BME280;54636;51.684;5.142;2023-03-01T03:24:25;103079.56;;;-3.32;97.15
67840;BME280;54636;51.684;5.142;2023-03-01T03:26:51;103080.34;;;-3.31;98.08
67840;BME280;54636;51.684;5.142;2023-03-01T03:29:16;103069.38;;;-3.29;97.84
67840;BME280;54636;51.684;5.142;2023-03-01T03:31:42;103059.06;;;-3.31;99.12
67840;BME280;54636;51.684;5.142;2023-03-01T03:34:07;103063.41;;;-3.26;98.45
67840;BME280;54636;51.684;5.142;2023-03-01T03:36:32;103070.03;;;-3.33;97.92
67840;BME280;54636;51.684;5.142;2023-03-01T03:38:58;103060.94;;;-3.32;98.39
67840;BME280;54636;51.684;5.142;2023-03-01T03:41:23;103068.59;;;-3.30;98.32
67840;BME280;54636;51.684;5.142;2023-03-01T03:43:48;103050.09;;;-3.39;98.47
67840;BME280;54636;51.684;5.142;2023-03-01T03:46:14;103062.94;;;-3.28;98.52
67840;BME280;54636;51.684;5.142;2023-03-01T03:48:42;103065.81;;;-3.21;99.37
67840;BME280;54636;51.684;5.142;2023-03-01T03:51:13;103054.97;;;-3.16;98.57
67840;BME280;54636;51.684;5.142;2023-03-01T03:53:39;103056.19;;;-3.14;97.78
67840;BME280;54636;51.684;5.142;2023-03-01T03:56:05;103051.97;;;-3.15;97.58
67840;BME280;54636;51.684;5.142;2023-03-01T03:58:31;103051.09;;;-3.19;97.69
67840;BME280;54636;51.684;5.142;2023-03-01T04:00:57;103049.53;;;-3.20;98.35
67840;BME280;54636;51.684;5.142;2023-03-01T04:03:24;103049.88;;;-3.21;98.00
67840;BME280;54636;51.684;5.142;2023-03-01T04:05:50;103052.06;;;-3.23;97.31
67840;BME280;54636;51.684;5.142;2023-03-01T04:08:21;103043.25;;;-3.27;97.18
67840;BME280;54636;51.684;5.142;2023-03-01T04:10:49;103048.09;;;-3.29;98.12
67840;BME280;54636;51.684;5.142;2023-03-01T04:13:20;103043.13;;;-3.31;98.16
67840;BME280;54636;51.684;5.142;2023-03-01T04:15:49;103044.78;;;-3.39;98.02
67840;BME280;54636;51.684;5.142;2023-03-01T04:18:17;103032.91;;;-3.41;98.10
67840;BME280;54636;51.684;5.142;2023-03-01T04:20:44;103038.88;;;-3.44;98.84
67840;BME280;54636;51.684;5.142;2023-03-01T04:23:16;103045.53;;;-3.50;98.58
67840;BME280;54636;51.684;5.142;2023-03-01T04:25:50;103044.28;;;-3.53;98.33
67840;BME280;54636;51.684;5.142;2023-03-01T04:28:36;103049.28;;;-3.51;99.19
67840;BME280;54636;51.684;5.142;2023-03-01T04:31:07;103042.75;;;-3.54;98.82
67840;BME280;54636;51.684;5.142;2023-03-01T04:33:42;103051.25;;;-3.60;97.87
67840;BME280;54636;51.684;5.142;2023-03-01T04:36:09;103046.78;;;-3.69;98.23
67840;BME280;54636;51.684;5.142;2023-03-01T04:38:36;103045.91;;;-3.73;98.50
67840;BME280;54636;51.684;5.142;2023-03-01T04:41:05;103049.06;;;-3.79;98.40
67840;BME280;54636;51.684;5.142;2023-03-01T04:43:31;103047.59;;;-3.89;98.62
67840;BME280;54636;51.684;5.142;2023-03-01T04:46:02;103048.28;;;-3.92;99.11
67840;BME280;54636;51.684;5.142;2023-03-01T04:48:28;103036.19;;;-4.02;100.00
67840;BME280;54636;51.684;5.142;2023-03-01T04:50:53;103033.97;;;-4.00;100.00
67840;BME280;54636;51.684;5.142;2023-03-01T04:53:19;103035.72;;;-4.04;99.62
67840;BME280;54636;51.684;5.142;2023-03-01T04:55:44;103040.91;;;-4.07;100.00
67840;BME280;54636;51.684;5.142;2023-03-01T04:58:10;103033.16;;;-4.12;100.00
67840;BME280;54636;51.684;5.142;2023-03-01T05:00:35;103032.56;;;-4.18;100.00
67840;BME280;54636;51.684;5.142;2023-03-01T05:03:00;103014.97;;;-4.22;100.00
67840;BME280;54636;51.684;5.142;2023-03-01T05:05:29;103018.44;;;-4.10;100.00
67840;BME280;54636;51.684;5.142;2023-03-01T05:07:58;103016.56;;;-4.09;100.00
67840;BME280;54636;51.684;5.142;2023-03-01T05:10:25;103005.56;;;-4.20;100.00
67840;BME280;54636;51.684;5.142;2023-03-01T05:12:51;103004.16;;;-4.17;100.00
67840;BME280;54636;51.684;5.142;2023-03-01T05:15:18;103011.91;;;-4.12;100.00
67840;BME280;54636;51.684;5.142;2023-03-01T05:17:43;103000.31;;;-4.08;100.00
67840;BME280;54636;51.684;5.142;2023-03-01T05:20:10;102995.59;;;-4.02;100.00
67840;BME280;54636;51.684;5.142;2023-03-01T05:22:35;102986.97;;;-3.99;100.00
67840;BME280;54636;51.684;5.142;2023-03-01T05:25:02;102985.75;;;-3.89;100.00
67840;BME280;54636;51.684;5.142;2023-03-01T05:27:27;102980.91;;;-3.87;100.00
67840;BME280;54636;51.684;5.142;2023-03-01T05:29:55;102977.59;;;-3.84;100.00
67840;BME280;54636;51.684;5.142;2023-03-01T05:32:20;102979.38;;;-3.76;100.00
67840;BME280;54636;51.684;5.142;2023-03-01T05:34:46;102971.75;;;-3.78;100.00
67840;BME280;54636;51.684;5.142;2023-03-01T05:37:12;102967.88;;;-3.80;100.00
67840;BME280;54636;51.684;5.142;2023-03-01T05:39:38;102966.56;;;-3.74;100.00
67840;BME280;54636;51.684;5.142;2023-03-01T05:42:04;102968.56;;;-3.71;100.00
67840;BME280;54636;51.684;5.142;2023-03-01T05:44:30;102960.59;;;-3.71;100.00
67840;BME280;54636;51.684;5.142;2023-03-01T05:46:56;102949.41;;;-3.77;100.00
67840;BME280;54636;51.684;5.142;2023-03-01T05:49:21;102953.94;;;-3.77;100.00
67840;BME280;54636;51.684;5.142;2023-03-01T05:51:52;102944.31;;;-3.82;100.00
67840;BME280;54636;51.684;5.142;2023-03-01T05:54:20;102952.25;;;-3.82;100.00
67840;BME280;54636;51.684;5.142;2023-03-01T05:56:45;102946.84;;;-3.85;100.00
67840;BME280;54636;51.684;5.142;2023-03-01T05:59:11;102948.94;;;-3.91;100.00
67840;BME280;54636;51.684;5.142;2023-03-01T06:01:37;102953.91;;;-4.02;100.00
67840;BME280;54636;51.684;5.142;2023-03-01T06:04:03;102965.03;;;-4.08;100.00
67840;BME280;54636;51.684;5.142;2023-03-01T06:06:29;102966.47;;;-4.11;100.00
67840;BME280;54636;51.684;5.142;2023-03-01T06:08:55;102959.16;;;-4.14;100.00
67840;BME280;54636;51.684;5.142;2023-03-01T06:11:21;102965.56;;;-4.15;100.00
67840;BME280;54636;51.684;5.142;2023-03-01T06:13:47;102975.66;;;-4.08;100.00
67840;BME280;54636;51.684;5.142;2023-03-01T06:16:13;102973.78;;;-4.08;100.00
67840;BME280;54636;51.684;5.142;2023-03-01T06:18:38;102977.53;;;-4.09;100.00
67840;BME280;54636;51.684;5.142;2023-03-01T06:21:05;102971.72;;;-4.02;100.00
67840;BME280;54636;51.684;5.142;2023-03-01T06:23:31;102973.25;;;-4.01;100.00
67840;BME280;54636;51.684;5.142;2023-03-01T06:25:57;102967.63;;;-3.87;100.00
67840;BME280;54636;51.684;5.142;2023-03-01T06:28:22;102971.63;;;-3.81;100.00
67840;BME280;54636;51.684;5.142;2023-03-01T06:30:48;102974.84;;;-3.76;100.00
67840;BME280;54636;51.684;5.142;2023-03-01T06:33:14;102977.28;;;-3.71;100.00
67840;BME280;54636;51.684;5.142;2023-03-01T06:35:39;102973.97;;;-3.68;100.00
67840;BME280;54636;51.684;5.142;2023-03-01T06:38:05;102975.53;;;-3.67;100.00
67840;BME280;54636;51.684;5.142;2023-03-01T06:40:31;102969.91;;;-3.65;100.00
67840;BME280;54636;51.684;5.142;2023-03-01T06:42:57;102972.34;;;-3.60;100.00
67840;BME280;54636;51.684;5.142;2023-03-01T06:45:24;102969.03;;;-3.57;100.00
67840;BME280;54636;51.684;5.142;2023-03-01T06:47:51;102956.06;;;-3.58;100.00
67840;BME280;54636;51.684;5.142;2023-03-01T06:50:17;102969.59;;;-3.51;100.00
67840;BME280;54636;51.684;5.142;2023-03-01T06:52:43;102962.84;;;-3.49;100.00
67840;BME280;54636;51.684;5.142;2023-03-01T06:55:10;102972.13;;;-3.43;100.00
67840;BME280;54636;51.684;5.142;2023-03-01T06:57:36;102976.78;;;-3.40;100.00
67840;BME280;54636;51.684;5.142;2023-03-01T07:00:03;102975.25;;;-3.41;100.00
67840;BME280;54636;51.684;5.142;2023-03-01T07:02:28;102977.13;;;-3.41;100.00
67840;BME280;54636;51.684;5.142;2023-03-01T07:04:54;102984.88;;;-3.36;100.00
67840;BME280;54636;51.684;5.142;2023-03-01T07:07:19;102978.91;;;-3.33;100.00
67840;BME280;54636;51.684;5.142;2023-03-01T07:09:46;102978.25;;;-3.30;100.00
67840;BME280;54636;51.684;5.142;2023-03-01T07:12:11;102974.47;;;-3.29;100.00
67840;BME280;54636;51.684;5.142;2023-03-01T07:14:37;102971.94;;;-3.25;100.00
67840;BME280;54636;51.684;5.142;2023-03-01T07:17:02;102969.13;;;-3.17;100.00
67840;BME280;54636;51.684;5.142;2023-03-01T07:19:28;102976.88;;;-3.12;100.00
67840;BME280;54636;51.684;5.142;2023-03-01T07:21:53;102979.44;;;-3.03;100.00
67840;BME280;54636;51.684;5.142;2023-03-01T07:24:20;102977.00;;;-2.96;100.00
67840;BME280;54636;51.684;5.142;2023-03-01T07:26:48;102973.44;;;-2.88;100.00
67840;BME280;54636;51.684;5.142;2023-03-01T07:29:14;102969.22;;;-2.77;100.00
67840;BME280;54636;51.684;5.142;2023-03-01T07:31:40;102968.53;;;-2.61;100.00
67840;BME280;54636;51.684;5.142;2023-03-01T07:34:05;102964.69;;;-2.48;100.00
67840;BME280;54636;51.684;5.142;2023-03-01T07:36:31;102955.00;;;-2.41;100.00
67840;BME280;54636;51.684;5.142;2023-03-01T07:38:56;102969.94;;;-2.24;99.41
67840;BME280;54636;51.684;5.142;2023-03-01T07:41:23;102973.41;;;-2.08;98.92
67840;BME280;54636;51.684;5.142;2023-03-01T07:43:49;102980.13;;;-1.98;98.31
67840;BME280;54636;51.684;5.142;2023-03-01T07:46:14;102982.63;;;-1.89;97.79
67840;BME280;54636;51.684;5.142;2023-03-01T07:48:40;102991.06;;;-1.72;97.36
67840;BME280;54636;51.684;5.142;2023-03-01T07:51:06;102986.97;;;-1.53;96.16
67840;BME280;54636;51.684;5.142;2023-03-01T07:53:33;102986.44;;;-1.43;95.67
67840;BME280;54636;51.684;5.142;2023-03-01T07:56:04;102989.38;;;-1.33;95.67
67840;BME280;54636;51.684;5.142;2023-03-01T07:58:30;103001.03;;;-1.21;94.66
67840;BME280;54636;51.684;5.142;2023-03-01T08:00:55;102974.78;;;-1.19;93.65
67840;BME280;54636;51.684;5.142;2023-03-01T08:03:20;102999.72;;;-0.96;92.64
67840;BME280;54636;51.684;5.142;2023-03-01T08:05:46;103001.41;;;-0.88;92.92
67840;BME280;54636;51.684;5.142;2023-03-01T08:08:11;103001.22;;;-0.79;92.28
67840;BME280;54636;51.684;5.142;2023-03-01T08:10:37;103003.00;;;-0.68;92.08
67840;BME280;54636;51.684;5.142;2023-03-01T08:13:02;103001.03;;;-0.51;90.73
67840;BME280;54636;51.684;5.142;2023-03-01T08:15:28;103000.06;;;-0.43;91.65
67840;BME280;54636;51.684;5.142;2023-03-01T08:17:53;102999.50;;;-0.33;90.56
67840;BME280;54636;51.684;5.142;2023-03-01T08:20:18;103003.53;;;-0.23;90.11
67840;BME280;54636;51.684;5.142;2023-03-01T08:22:44;102996.06;;;-0.14;89.06
67840;BME280;54636;51.684;5.142;2023-03-01T08:25:09;102994.78;;;-0.01;88.71
67840;BME280;54636;51.684;5.142;2023-03-01T08:27:35;102977.25;;;0.02;88.30
67840;BME280;54636;51.684;5.142;2023-03-01T08:30:00;102996.00;;;0.24;86.72
67840;BME280;54636;51.684;5.142;2023-03-01T08:32:25;102987.81;;;0.37;86.55
67840;BME280;54636;51.684;5.142;2023-03-01T08:34:51;102991.84;;;0.50;86.33
67840;BME280;54636;51.684;5.142;2023-03-01T08:37:16;102997.72;;;0.59;85.55
67840;BME280;54636;51.684;5.142;2023-03-01T08:39:41;102989.78;;;0.66;84.79
67840;BME280;54636;51.684;5.142;2023-03-01T08:42:07;102998.75;;;0.77;84.91
67840;BME280;54636;51.684;5.142;2023-03-01T08:44:32;102994.28;;;0.85;83.87
67840;BME280;54636;51.684;5.142;2023-03-01T08:46:58;102986.00;;;0.93;83.93
67840;BME280;54636;51.684;5.142;2023-03-01T08:49:25;102980.38;;;1.02;83.80
67840;BME280;54636;51.684;5.142;2023-03-01T08:51:50;102966.34;;;1.09;82.14
67840;BME280;54636;51.684;5.142;2023-03-01T08:54:18;102966.91;;;1.21;82.27
67840;BME280;54636;51.684;5.142;2023-03-01T08:56:44;102969.69;;;1.32;80.22
67840;BME280;54636;51.684;5.142;2023-03-01T08:59:11;102971.34;;;1.44;79.27
67840;BME280;54636;51.684;5.142;2023-03-01T09:01:37;102970.31;;;1.52;78.91
67840;BME280;54636;51.684;5.142;2023-03-01T09:04:03;102965.03;;;1.59;78.28
67840;BME280;54636;51.684;5.142;2023-03-01T09:06:33;102960.94;;;1.69;78.63
67840;BME280;54636;51.684;5.142;2023-03-01T09:08:58;102954.56;;;1.80;76.96
67840;BME280;54636;51.684;5.142;2023-03-01T09:11:24;102952.31;;;1.86;76.58
67840;BME280;54636;51.684;5.142;2023-03-01T09:13:50;102947.41;;;1.91;75.81
67840;BME280;54636;51.684;5.142;2023-03-01T09:16:18;102945.16;;;2.01;76.32
67840;BME280;54636;51.684;5.142;2023-03-01T09:18:45;102941.00;;;2.07;75.53
67840;BME280;54636;51.684;5.142;2023-03-01T09:21:12;102943.06;;;2.20;75.05
67840;BME280;54636;51.684;5.142;2023-03-01T09:23:47;102935.84;;;2.28;74.51
67840;BME280;54636;51.684;5.142;2023-03-01T09:26:16;102935.94;;;2.39;73.50
67840;BME280;54636;51.684;5.142;2023-03-01T09:28:42;102929.50;;;2.50;71.29
67840;BME280;54636;51.684;5.142;2023-03-01T09:31:08;102925.72;;;2.58;71.24
67840;BME280;54636;51.684;5.142;2023-03-01T09:33:34;102921.56;;;2.68;71.12
67840;BME280;54636;51.684;5.142;2023-03-01T09:36:01;102915.47;;;2.75;70.45
67840;BME280;54636;51.684;5.142;2023-03-01T09:38:27;102917.06;;;2.86;69.98
67840;BME280;54636;51.684;5.142;2023-03-01T09:40:53;102916.72;;;2.95;69.59
67840;BME280;54636;51.684;5.142;2023-03-01T09:43:25;102919.09;;;3.04;69.15
67840;BME280;54636;51.684;5.142;2023-03-01T09:45:58;102910.31;;;3.14;67.92
67840;BME280;54636;51.684;5.142;2023-03-01T09:48:27;102913.81;;;3.32;68.56
67840;BME280;54636;51.684;5.142;2023-03-01T09:50:56;102909.97;;;3.33;66.74
67840;BME280;54636;51.684;5.142;2023-03-01T09:53:27;102911.53;;;3.41;65.36
67840;BME280;54636;51.684;5.142;2023-03-01T10:01:43;102903.53;;;3.66;64.69
67840;BME280;54636;51.684;5.142;2023-03-01T10:06:40;102904.72;;;3.83;62.73
67840;BME280;54636;51.684;5.142;2023-03-01T10:09:14;102901.28;;;3.86;61.88
67840;BME280;54636;51.684;5.142;2023-03-01T10:11:51;102903.56;;;3.94;62.69
67840;BME280;54636;51.684;5.142;2023-03-01T10:14:31;102902.03;;;4.04;61.38
67840;BME280;54636;51.684;5.142;2023-03-01T10:16:59;102902.41;;;4.10;61.33
67840;BME280;54636;51.684;5.142;2023-03-01T10:19:54;102909.72;;;4.16;60.32
67840;BME280;54636;51.684;5.142;2023-03-01T10:22:28;102915.50;;;4.11;59.13
67840;BME280;54636;51.684;5.142;2023-03-01T10:24:56;102917.78;;;4.09;59.35
67840;BME280;54636;51.684;5.142;2023-03-01T10:27:24;102898.19;;;4.12;59.92
67840;BME280;54636;51.684;5.142;2023-03-01T10:29:55;102898.19;;;4.23;59.07
67840;BME280;54636;51.684;5.142;2023-03-01T10:32:24;102902.03;;;4.22;58.41
67840;BME280;54636;51.684;5.142;2023-03-01T10:34:50;102901.66;;;4.13;58.00
67840;BME280;54636;51.684;5.142;2023-03-01T10:37:18;102890.91;;;4.09;59.06
67840;BME280;54636;51.684;5.142;2023-03-01T10:40:17;102886.66;;;4.15;58.45
67840;BME280;54636;51.684;5.142;2023-03-01T10:42:48;102888.97;;;4.17;57.58
67840;BME280;54636;51.684;5.142;2023-03-01T10:45:35;102884.38;;;4.14;58.40
67840;BME280;54636;51.684;5.142;2023-03-01T10:50:35;102855.16;;;4.30;58.31
67840;BME280;54636;51.684;5.142;2023-03-01T10:53:04;102862.06;;;4.45;57.43
67840;BME280;54636;51.684;5.142;2023-03-01T10:55:38;102852.81;;;4.53;58.57
67840;BME280;54636;51.684;5.142;2023-03-01T10:58:18;102852.00;;;4.56;58.31
67840;BME280;54636;51.684;5.142;2023-03-01T11:00:53;102851.59;;;4.65;57.16
67840;BME280;54636;51.684;5.142;2023-03-01T11:03:24;102845.47;;;4.61;57.95
67840;BME280;54636;51.684;5.142;2023-03-01T11:05:53;102849.28;;;4.67;58.04
67840;BME280;54636;51.684;5.142;2023-03-01T11:08:49;102858.50;;;4.77;58.86
67840;BME280;54636;51.684;5.142;2023-03-01T11:11:22;102851.94;;;4.81;58.41
67840;BME280;54636;51.684;5.142;2023-03-01T11:19:16;102838.50;;;4.71;57.17
67840;BME280;54636;51.684;5.142;2023-03-01T11:26:59;102829.22;;;4.86;55.32
67840;BME280;54636;51.684;5.142;2023-03-01T11:29:34;102825.31;;;4.97;56.16
67840;BME280;54636;51.684;5.142;2023-03-01T11:32:05;102814.16;;;4.99;56.98
67840;BME280;54636;51.684;5.142;2023-03-01T11:35:08;102832.19;;;5.09;56.46
67840;BME280;54636;51.684;5.142;2023-03-01T11:40:26;102837.97;;;5.08;55.06
67840;BME280;54636;51.684;5.142;2023-03-01T11:45:45;102830.63;;;5.19;54.54
67840;BME280;54636;51.684;5.142;2023-03-01T11:48:28;102821.38;;;5.16;53.45
67840;BME280;54636;51.684;5.142;2023-03-01T11:51:02;102826.38;;;5.18;53.79
67840;BME280;54636;51.684;5.142;2023-03-01T11:56:32;102820.50;;;5.30;54.33
67840;BME280;54636;51.684;5.142;2023-03-01T11:59:33;102830.88;;;5.35;53.02
67840;BME280;54636;51.684;5.142;2023-03-01T12:05:38;102821.69;;;5.25;53.38
67840;BME280;54636;51.684;5.142;2023-03-01T12:08:28;102825.84;;;5.37;52.02
67840;BME280;54636;51.684;5.142;2023-03-01T12:11:13;102819.28;;;5.42;52.72
67840;BME280;54636;51.684;5.142;2023-03-01T12:22:43;102808.00;;;5.57;53.63
67840;BME280;54636;51.684;5.142;2023-03-01T12:25:22;102801.84;;;5.57;52.66
67840;BME280;54636;51.684;5.142;2023-03-01T12:38:33;102762.50;;;5.18;52.55
67840;BME280;54636;51.684;5.142;2023-03-01T12:49:26;102767.75;;;5.36;53.01
67840;BME280;54636;51.684;5.142;2023-03-01T12:51:58;102770.78;;;5.42;52.71
67840;BME280;54636;51.684;5.142;2023-03-01T12:54:31;102769.22;;;5.44;53.33
67840;BME280;54636;51.684;5.142;2023-03-01T12:57:02;102770.41;;;5.40;52.43
67840;BME280;54636;51.684;5.142;2023-03-01T12:59:39;102751.19;;;5.34;52.69
67840;BME280;54636;51.684;5.142;2023-03-01T13:02:23;102751.53;;;5.40;53.78
67840;BME280;54636;51.684;5.142;2023-03-01T13:08:15;102744.56;;;5.46;53.25
67840;BME280;54636;51.684;5.142;2023-03-01T13:10:56;102729.63;;;5.38;52.68
67840;BME280;54636;51.684;5.142;2023-03-01T13:13:25;102724.25;;;5.34;52.91
67840;BME280;54636;51.684;5.142;2023-03-01T13:15:52;102718.09;;;5.34;52.63
67840;BME280;54636;51.684;5.142;2023-03-01T13:20:52;102722.28;;;5.42;51.92
67840;BME280;54636;51.684;5.142;2023-03-01T13:31:06;102709.59;;;5.39;53.97
67840;BME280;54636;51.684;5.142;2023-03-01T13:36:00;102705.69;;;5.47;52.42
67840;BME280;54636;51.684;5.142;2023-03-01T13:38:45;102699.56;;;5.39;52.75
67840;BME280;54636;51.684;5.142;2023-03-01T13:41:16;102696.44;;;5.44;52.20
67840;BME280;54636;51.684;5.142;2023-03-01T13:43:43;102692.59;;;5.45;50.46
67840;BME280;54636;51.684;5.142;2023-03-01T13:46:23;102699.88;;;5.48;50.42
67840;BME280;54636;51.684;5.142;2023-03-01T13:48:54;102683.72;;;5.48;50.52
67840;BME280;54636;51.684;5.142;2023-03-01T13:51:27;102680.59;;;5.53;51.21
67840;BME280;54636;51.684;5.142;2023-03-01T13:53:55;102679.00;;;5.59;51.10
67840;BME280;54636;51.684;5.142;2023-03-01T13:56:24;102679.31;;;5.65;51.86
67840;BME280;54636;51.684;5.142;2023-03-01T14:01:33;102668.91;;;5.67;50.84
67840;BME280;54636;51.684;5.142;2023-03-01T14:04:01;102659.72;;;5.61;52.21
67840;BME280;54636;51.684;5.142;2023-03-01T14:06:28;102648.09;;;5.68;51.44
67840;BME280;54636;51.684;5.142;2023-03-01T14:09:23;102654.56;;;5.77;50.85
67840;BME280;54636;51.684;5.142;2023-03-01T14:20:25;102638.84;;;5.69;50.77
67840;BME280;54636;51.684;5.142;2023-03-01T14:22:54;102636.16;;;5.69;50.17
67840;BME280;54636;51.684;5.142;2023-03-01T14:25:28;102636.41;;;5.81;49.63
67840;BME280;54636;51.684;5.142;2023-03-01T14:28:04;102628.75;;;5.76;49.36
67840;BME280;54636;51.684;5.142;2023-03-01T14:30:40;102624.13;;;5.77;49.58
67840;BME280;54636;51.684;5.142;2023-03-01T14:33:19;102609.56;;;5.71;49.26
67840;BME280;54636;51.684;5.142;2023-03-01T14:35:52;102627.63;;;5.74;48.54